Time;durP1;ratioP1;P1;durP2;ratioP2;P2;SDS_P1;SDS_P2;PMS_P1;PMS_P2;Temp;Humidity;BMP_temperature;BMP_pressure;BME280_temperature;BME280_humidity;BME280_pressure;Samples;Min_cycle;Max_cycle;Signal;HPM_P1;HPM_P2
2022/02/04 00:01:17;;;;;;;;;;;;;;;;;;5025940;28;20489;-66
2022/02/04 00:06:51;;;;;;;790.67;43.67;;;;;;;;;;5021317;28;20080;-66
2022/02/04 00:23:21;;;;;;;843.88;38.88;;;;;;;;;;5023205;28;20077;-66
2022/02/04 00:33:34;;;;;;;910.70;47.55;;;;;;;;;;5022578;28;20147;-66
2022/02/04 00:36:12;;;;;;;1043.03;50.53;;;;;;;;;;5021321;28;20037;-66
2022/02/04 00:38:50;;;;;;;979.10;50.42;;;;;;;;;;5022741;28;20141;-65
2022/02/04 00:41:21;;;;;;;858.38;42.40;;;;;;;;;;5022563;28;20136;-66
2022/02/04 00:43:56;;;;;;;792.97;37.90;;;;;;;;;;5020866;28;20050;-66
2022/02/04 00:50:14;;;;;;;806.95;41.58;;;;;;;;;;5005438;28;20132;-66
2022/02/04 00:55:15;;;;;;;1207.63;69.75;;;;;;;;;;5022107;28;20515;-66
2022/02/04 01:27:34;;;;;;;966.70;60.22;;;;;;;;;;5020795;28;20127;-66
2022/02/04 01:30:04;;;;;;;1118.13;65.93;;;;;;;;;;5021160;28;20529;-66
2022/02/04 01:32:31;;;;;;;1219.40;72.90;;;;;;;;;;5022646;28;20128;-67
2022/02/04 01:35:04;;;;;;;1145.20;70.78;;;;;;;;;;5022571;28;20132;-66
2022/02/04 01:37:30;;;;;;;1386.68;77.82;;;;;;;;;;5021594;28;20201;-66
2022/02/04 01:39:57;;;;;;;772.22;50.08;;;;;;;;;;5023637;28;20041;-66
2022/02/04 01:42:23;;;;;;;948.40;59.55;;;;;;;;;;5026536;28;20081;-66
2022/02/04 01:44:51;;;;;;;864.58;57.42;;;;;;;;;;5024089;28;20274;-66
2022/02/04 01:47:17;;;;;;;612.55;45.97;;;;;;;;;;5023465;28;20038;-66
2022/02/04 01:49:44;;;;;;;740.70;49.65;;;;;;;;;;5024245;28;20177;-66
2022/02/04 01:52:11;;;;;;;833.72;55.40;;;;;;;;;;5022658;28;20598;-66
2022/02/04 01:54:38;;;;;;;204.93;34.35;;;;;;;;;;5024480;28;20700;-66
2022/02/04 01:57:05;;;;;;;450.08;39.65;;;;;;;;;;5017598;28;20149;-66
2022/02/04 01:59:31;;;;;;;184.00;31.52;;;;;;;;;;5018199;28;20132;-66
2022/02/04 02:01:58;;;;;;;183.30;31.58;;;;;;;;;;5019754;28;20084;-66
2022/02/04 02:04:24;;;;;;;210.43;33.38;;;;;;;;;;5019742;28;20431;-66
2022/02/04 02:06:55;;;;;;;167.00;32.80;;;;;;;;;;5019359;28;20073;-67
2022/02/04 02:09:26;;;;;;;192.07;33.22;;;;;;;;;;5020384;28;20041;-66
2022/02/04 02:12:03;;;;;;;165.98;32.67;;;;;;;;;;5020987;28;20133;-66
2022/02/04 02:14:31;;;;;;;171.40;31.40;;;;;;;;;;5022962;28;20049;-66
2022/02/04 02:48:30;;;;;;;169.02;31.08;;;;;;;;;;5019727;28;20053;-66
2022/02/04 02:51:26;;;;;;;162.25;32.65;;;;;;;;;;5019590;28;20482;-66
2022/02/04 02:54:00;;;;;;;146.30;31.00;;;;;;;;;;5017574;28;20081;-66
2022/02/04 02:59:20;;;;;;;147.80;31.08;;;;;;;;;;5014323;28;20141;-66
2022/02/04 03:01:49;;;;;;;131.45;29.27;;;;;;;;;;5019206;28;20132;-67
2022/02/04 03:04:19;;;;;;;137.32;30.10;;;;;;;;;;5019479;28;20132;-66
2022/02/04 03:06:46;;;;;;;115.18;28.65;;;;;;;;;;5002232;28;20084;-66
2022/02/04 03:09:13;;;;;;;106.55;27.27;;;;;;;;;;5019033;28;20140;-66
2022/02/04 03:11:40;;;;;;;;;;;;;;;;;;5020503;28;20169;-66
2022/02/04 03:14:06;;;;;;;108.75;25.00;;;;;;;;;;5025048;28;20369;-66
2022/02/04 03:16:33;;;;;;;73.23;18.70;;;;;;;;;;5025846;28;20088;-66
2022/02/04 03:19:02;;;;;;;106.85;24.95;;;;;;;;;;5024712;28;20136;-66
2022/02/04 03:21:34;;;;;;;100.38;24.15;;;;;;;;;;5022894;28;20600;-66
2022/02/04 03:24:07;;;;;;;89.80;22.10;;;;;;;;;;5022295;28;20077;-66
2022/02/04 03:26:50;;;;;;;85.22;21.25;;;;;;;;;;5023849;28;20060;-66
2022/02/04 03:29:47;;;;;;;82.22;21.92;;;;;;;;;;5022642;28;20128;-66
2022/02/04 03:32:17;;;;;;;79.30;21.05;;;;;;;;;;5023368;28;20057;-66
2022/02/04 03:34:51;;;;;;;82.22;19.67;;;;;;;;;;5021749;28;20132;-66
2022/02/04 03:37:17;;;;;;;81.65;21.23;;;;;;;;;;5022959;28;20045;-66
2022/02/04 03:39:44;;;;;;;80.40;20.38;;;;;;;;;;5023947;28;20160;-66
2022/02/04 03:42:17;;;;;;;74.55;19.52;;;;;;;;;;5024056;28;20049;-66
2022/02/04 03:44:43;;;;;;;78.15;19.58;;;;;;;;;;5024215;28;20129;-66
2022/02/04 03:47:10;;;;;;;71.50;18.48;;;;;;;;;;5025363;28;20148;-66
2022/02/04 03:49:40;;;;;;;69.20;18.48;;;;;;;;;;5021320;28;20505;-66
2022/02/04 03:52:06;;;;;;;83.85;20.55;;;;;;;;;;5022231;28;20124;-66
2022/02/04 03:54:33;;;;;;;78.88;18.90;;;;;;;;;;5022254;28;20217;-66
2022/02/04 03:57:00;;;;;;;77.65;19.35;;;;;;;;;;5021891;28;20053;-66
2022/02/04 03:59:28;;;;;;;74.97;18.40;;;;;;;;;;5021444;28;20125;-66
2022/02/04 04:01:54;;;;;;;66.32;18.27;;;;;;;;;;5023838;28;20184;-66
2022/02/04 04:04:27;;;;;;;72.38;17.38;;;;;;;;;;5022616;28;20136;-66
2022/02/04 04:06:54;;;;;;;66.97;19.13;;;;;;;;;;5023536;28;20056;-65
2022/02/04 04:09:20;;;;;;;75.28;18.05;;;;;;;;;;5020248;28;20120;-65
2022/02/04 04:11:55;;;;;;;50.58;17.38;;;;;;;;;;5017884;28;20081;-65
2022/02/04 04:14:21;;;;;;;70.60;19.65;;;;;;;;;;5021825;28;20137;-65
2022/02/04 04:16:48;;;;;;;63.80;17.15;;;;;;;;;;5023125;28;20141;-65
2022/02/04 04:19:21;;;;;;;58.67;18.02;;;;;;;;;;5022787;28;20081;-65
2022/02/04 04:21:51;;;;;;;63.83;18.17;;;;;;;;;;5022920;28;20225;-65
2022/02/04 04:24:17;;;;;;;87.07;19.52;;;;;;;;;;5019969;28;20997;-65
2022/02/04 04:26:50;;;;;;;69.40;19.17;;;;;;;;;;5022871;28;20161;-65
2022/02/04 04:29:16;;;;;;;79.25;19.13;;;;;;;;;;5021629;28;20230;-65
2022/02/04 04:31:43;;;;;;;71.05;18.48;;;;;;;;;;5020548;28;20050;-65
2022/02/04 04:34:11;;;;;;;69.22;19.85;;;;;;;;;;5020717;28;20144;-65
2022/02/04 04:36:37;;;;;;;63.70;19.42;;;;;;;;;;5022317;28;20475;-65
2022/02/04 04:39:15;;;;;;;75.03;20.30;;;;;;;;;;5021554;28;20144;-65
2022/02/04 05:28:36;;;;;;;69.68;19.42;;;;;;;;;;5019499;28;20132;-65
2022/02/04 05:31:03;;;;;;;66.43;20.20;;;;;;;;;;5020779;28;20196;-65
2022/02/04 05:33:29;;;;;;;78.65;20.65;;;;;;;;;;5020323;28;20137;-65
2022/02/04 05:35:55;;;;;;;70.78;21.83;;;;;;;;;;5019850;28;20172;-65
2022/02/04 05:38:23;;;;;;;86.87;21.40;;;;;;;;;;5021080;28;20689;-65
2022/02/04 05:40:51;;;;;;;71.72;18.90;;;;;;;;;;5018520;28;20131;-65
2022/02/04 05:43:25;;;;;;;72.30;20.20;;;;;;;;;;5003487;28;20128;-65
2022/02/04 05:46:06;;;;;;;79.63;19.65;;;;;;;;;;5017062;28;20075;-65
2022/02/04 05:48:35;;;;;;;68.57;19.00;;;;;;;;;;5018352;28;20140;-65
2022/02/04 05:53:55;;;;;;;67.65;18.70;;;;;;;;;;5018083;28;20136;-65
2022/02/04 05:56:32;;;;;;;63.10;18.33;;;;;;;;;;5020658;28;20053;-65
2022/02/04 06:04:14;;;;;;;66.03;18.80;;;;;;;;;;5018730;28;20140;-65
2022/02/04 06:07:07;;;;;;;56.38;17.85;;;;;;;;;;5017211;28;20068;-65
2022/02/04 06:13:02;;;;;;;55.35;19.38;;;;;;;;;;5022939;28;20132;-65
2022/02/04 06:22:08;;;;;;;43.03;15.32;;;;;;;;;;5022348;28;20041;-65
2022/02/04 06:23:52;;;;;;;64.18;19.65;;;;;;;;;;5023684;28;20176;-65
2022/02/04 06:26:19;;;;;;;63.88;21.40;;;;;;;;;;5021512;28;20180;-65
2022/02/04 06:28:45;;;;;;;62.03;19.50;;;;;;;;;;5023739;28;20084;-65
2022/02/04 06:31:12;;;;;;;61.00;19.40;;;;;;;;;;5021197;28;20492;-65
2022/02/04 06:33:38;;;;;;;70.60;21.33;;;;;;;;;;5022341;28;20131;-65
2022/02/04 06:36:05;;;;;;;72.35;21.13;;;;;;;;;;5009503;28;20464;-65
2022/02/04 06:38:32;;;;;;;75.88;21.55;;;;;;;;;;5024302;28;20088;-65
2022/02/04 06:40:59;;;;;;;69.90;22.33;;;;;;;;;;5022014;28;20088;-65
2022/02/04 06:43:25;;;;;;;72.18;21.85;;;;;;;;;;5022425;28;20582;-65
2022/02/04 06:45:52;;;;;;;82.85;22.23;;;;;;;;;;5022836;28;20132;-65
2022/02/04 06:48:22;;;;;;;75.47;21.33;;;;;;;;;;5025473;28;20108;-65
2022/02/04 06:50:48;;;;;;;82.45;23.95;;;;;;;;;;5026031;28;20136;-65
2022/02/04 06:53:15;;;;;;;87.55;24.45;;;;;;;;;;5022737;28;20136;-65
2022/02/04 06:55:42;;;;;;;88.80;23.85;;;;;;;;;;5025450;28;20148;-65
2022/02/04 06:58:10;;;;;;;86.55;26.75;;;;;;;;;;5026686;28;20470;-66
2022/02/04 07:00:39;;;;;;;84.13;25.77;;;;;;;;;;5021256;28;20074;-66
2022/02/04 07:03:07;;;;;;;90.38;25.70;;;;;;;;;;5024790;28;20060;-66
2022/02/04 07:05:41;;;;;;;102.72;27.58;;;;;;;;;;5027310;28;20104;-66
2022/02/04 07:08:22;;;;;;;92.40;27.00;;;;;;;;;;5021406;28;20131;-65
2022/02/04 07:11:40;;;;;;;99.20;27.60;;;;;;;;;;5021049;28;20050;-66
2022/02/04 07:16:25;;;;;;;;;;;;;;;;;;5021978;28;20143;-66
2022/02/04 07:21:38;;;;;;;94.45;24.20;;;;;;;;;;5021436;28;20333;-66
2022/02/04 07:24:05;;;;;;;91.75;23.52;;;;;;;;;;5026103;28;20092;-66
2022/02/04 07:26:32;;;;;;;77.78;22.63;;;;;;;;;;5019864;28;20489;-66
2022/02/04 07:28:59;;;;;;;;;;;;;;;;;;5020782;28;20137;-66
2022/02/04 07:31:30;;;;;;;87.18;21.65;;;;;;;;;;5004876;28;20522;-66
2022/02/04 07:42:07;;;;;;;63.75;19.95;;;;;;;;;;5027747;28;20080;-66
2022/02/04 07:44:33;;;;;;;74.32;21.25;;;;;;;;;;5026382;28;20280;-66
2022/02/04 07:47:00;;;;;;;63.35;19.02;;;;;;;;;;5023420;28;20080;-66
2022/02/04 07:49:27;;;;;;;67.17;20.13;;;;;;;;;;5025005;28;20171;-66
2022/02/04 07:51:53;;;;;;;66.40;19.93;;;;;;;;;;5024778;28;20308;-66
2022/02/04 07:54:19;;;;;;;79.28;21.27;;;;;;;;;;5022926;28;20125;-66
2022/02/04 07:56:48;;;;;;;67.93;20.30;;;;;;;;;;5021569;28;20119;-66
2022/02/04 07:59:14;;;;;;;64.45;19.75;;;;;;;;;;5021224;28;20137;-66
2022/02/04 08:01:42;;;;;;;72.57;21.02;;;;;;;;;;5025042;28;20420;-66
2022/02/04 08:04:16;;;;;;;56.70;18.40;;;;;;;;;;5021068;28;20571;-66
2022/02/04 08:06:50;;;;;;;62.00;18.23;;;;;;;;;;5024092;28;20092;-66
2022/02/04 08:09:27;;;;;;;75.18;19.65;;;;;;;;;;5027401;28;20141;-66
2022/02/04 08:17:39;;;;;;;56.92;16.80;;;;;;;;;;5021840;28;20076;-66
2022/02/04 08:25:37;;;;;;;52.42;15.75;;;;;;;;;;5022844;28;20129;-66
2022/02/04 08:28:36;;;;;;;51.70;14.40;;;;;;;;;;5023392;28;20092;-66
2022/02/04 08:34:46;;;;;;;45.10;15.30;;;;;;;;;;5022261;28;20073;-66
2022/02/04 08:55:23;;;;;;;35.78;12.02;;;;;;;;;;5025481;28;20080;-66
2022/02/04 08:58:03;;;;;;;36.45;11.57;;;;;;;;;;5043270;28;20562;-66
2022/02/04 09:01:06;;;;;;;33.13;12.23;;;;;;;;;;5041856;28;20107;-66
2022/02/04 09:03:28;;;;;;;36.35;11.68;;;;;;;;;;5040475;28;20049;-66
2022/02/04 09:06:15;;;;;;;;;;;;;;;;;;5042635;28;20088;-66
2022/02/04 09:09:29;;;;;;;31.38;9.93;;;;;;;;;;5047388;28;19978;-66
2022/02/04 09:19:29;;;;;;;22.38;8.40;;;;;;;;;;5043483;28;20091;-66
2022/02/04 09:24:22;;;;;;;22.42;7.88;;;;;;;;;;5042309;28;20092;-66
2022/02/04 09:26:51;;;;;;;20.83;6.47;;;;;;;;;;5040995;28;20083;-66
2022/02/04 09:29:17;;;;;;;18.60;7.13;;;;;;;;;;5038968;28;20163;-66
2022/02/04 09:31:44;;;;;;;23.13;7.20;;;;;;;;;;5044121;28;20130;-66
2022/02/04 09:34:14;;;;;;;19.38;7.80;;;;;;;;;;5040677;28;20124;-66
2022/02/04 09:36:41;;;;;;;22.20;8.23;;;;;;;;;;5043853;28;20572;-66
2022/02/04 09:39:08;;;;;;;21.35;7.85;;;;;;;;;;5040734;28;20133;-66
2022/02/04 09:41:36;;;;;;;26.85;8.32;;;;;;;;;;5040190;28;20582;-66
2022/02/04 09:44:02;;;;;;;18.45;7.75;;;;;;;;;;5043320;28;20544;-66
2022/02/04 09:46:36;;;;;;;22.40;7.35;;;;;;;;;;5036500;28;20057;-66
2022/02/04 09:49:13;;;;;;;17.85;6.82;;;;;;;;;;5041897;28;20133;-66
2022/02/04 10:12:00;;;;;;;4.00;1.30;;;;;;;;;;5017001;28;20473;-66
2022/02/04 10:17:04;;;;;;;6.68;1.23;;;;;;;;;;5023200;28;20128;-66
2022/02/04 10:19:42;;;;;;;6.25;1.38;;;;;;;;;;5020750;28;20176;-67
2022/02/04 10:22:08;;;;;;;3.08;1.42;;;;;;;;;;5006889;28;20128;-67
2022/02/04 10:24:41;;;;;;;5.45;1.27;;;;;;;;;;5022228;28;20081;-66
2022/02/04 10:27:09;;;;;;;7.88;1.20;;;;;;;;;;5018769;28;20128;-66
2022/02/04 10:29:36;;;;;;;4.30;1.20;;;;;;;;;;5020159;28;20148;-67
2022/02/04 10:32:10;;;;;;;5.82;1.13;;;;;;;;;;5023190;28;20140;-67
2022/02/04 10:34:38;;;;;;;2.80;1.10;;;;;;;;;;5021359;28;20386;-67
2022/02/04 10:37:24;;;;;;;7.63;1.30;;;;;;;;;;5017119;28;20144;-67
2022/02/04 10:40:19;;;;;;;3.58;1.20;;;;;;;;;;5021598;28;20595;-67
2022/02/04 10:45:34;;;;;;;3.75;1.10;;;;;;;;;;5020335;28;20052;-67
2022/02/04 11:01:31;;;;;;;6.25;1.20;;;;;;;;;;5020294;28;20144;-67
2022/02/04 11:04:02;;;;;;;5.28;1.67;;;;;;;;;;5020779;28;20544;-66
2022/02/04 11:06:51;;;;;;;6.97;1.17;;;;;;;;;;5022295;28;20334;-66
2022/02/04 11:09:33;;;;;;;8.38;1.70;;;;;;;;;;5017801;28;20078;-66
2022/02/04 11:35:06;;;;;;;8.25;1.70;;;;;;;;;;5025087;28;20132;-67
2022/02/04 11:54:55;;;;;;;17.33;1.95;;;;;;;;;;5018752;28;20104;-67
2022/02/04 11:57:23;;;;;;;14.02;1.85;;;;;;;;;;5024778;28;20085;-66
2022/02/04 11:59:50;;;;;;;19.02;1.92;;;;;;;;;;5023464;28;20596;-67
2022/02/04 12:02:16;;;;;;;;;;;;;;;;;;5024212;28;20056;-66
2022/02/04 12:04:46;;;;;;;22.90;2.38;;;;;;;;;;5023223;28;19929;-66
2022/02/04 12:07:31;;;;;;;13.20;2.05;;;;;;;;;;5024495;28;20557;-66
2022/02/04 12:09:58;;;;;;;15.93;2.28;;;;;;;;;;5021748;28;20046;-66
2022/02/04 12:12:43;;;;;;;11.32;1.92;;;;;;;;;;5027383;28;20141;-67
2022/02/04 12:15:30;;;;;;;15.02;2.50;;;;;;;;;;5025463;28;20145;-66
2022/02/04 12:17:57;;;;;;;13.90;2.00;;;;;;;;;;5023433;28;20084;-66
2022/02/04 12:20:44;;;;;;;17.95;2.20;;;;;;;;;;5024676;28;20132;-66
2022/02/04 12:23:25;;;;;;;9.48;2.10;;;;;;;;;;5021143;28;20153;-65
2022/02/04 12:26:01;;;;;;;18.88;2.67;;;;;;;;;;5019189;28;20129;-66
2022/02/04 12:28:43;;;;;;;14.60;1.95;;;;;;;;;;5024080;28;20058;-65
2022/02/04 12:31:25;;;;;;;21.00;2.95;;;;;;;;;;5026226;28;20092;-65
2022/02/04 12:33:55;;;;;;;16.92;2.17;;;;;;;;;;5025194;28;20168;-65
2022/02/04 12:36:26;;;;;;;20.60;2.10;;;;;;;;;;5027356;28;20073;-66
2022/02/04 12:38:54;;;;;;;18.95;2.30;;;;;;;;;;5024411;28;20132;-66
2022/02/04 12:41:22;;;;;;;15.95;2.35;;;;;;;;;;5022289;28;20098;-65
2022/02/04 12:43:51;;;;;;;24.85;2.17;;;;;;;;;;5025967;28;20163;-65
2022/02/04 12:46:18;;;;;;;24.30;2.72;;;;;;;;;;5022468;28;20054;-66
2022/02/04 12:48:58;;;;;;;10.27;1.90;;;;;;;;;;5023204;28;20049;-65
2022/02/04 12:51:29;;;;;;;17.30;2.40;;;;;;;;;;5023318;28;20579;-65
2022/02/04 12:53:57;;;;;;;17.30;2.33;;;;;;;;;;5025424;28;20582;-65
2022/02/04 12:57:04;;;;;;;16.77;2.47;;;;;;;;;;5022336;28;20058;-66
2022/02/04 13:02:23;;;;;;;17.63;2.08;;;;;;;;;;5023171;28;20629;-66
2022/02/04 13:07:49;;;;;;;17.20;2.30;;;;;;;;;;5025580;28;20465;-65
2022/02/04 13:10:26;;;;;;;20.70;2.30;;;;;;;;;;5020033;28;20092;-66
2022/02/04 13:12:52;;;;;;;15.98;2.55;;;;;;;;;;5021467;28;20081;-65
2022/02/04 13:15:19;;;;;;;13.93;2.07;;;;;;;;;;5022406;28;20099;-66
2022/02/04 13:17:46;;;;;;;19.20;2.90;;;;;;;;;;5023636;28;20283;-66
2022/02/04 13:20:15;;;;;;;15.40;1.73;;;;;;;;;;5022613;28;20133;-65
2022/02/04 13:22:42;;;;;;;17.02;2.78;;;;;;;;;;5008977;28;20133;-66
2022/02/04 13:25:18;;;;;;;9.05;1.80;;;;;;;;;;5021859;28;20045;-66
2022/02/04 13:27:59;;;;;;;17.60;2.15;;;;;;;;;;5021550;28;20049;-66
2022/02/04 13:30:27;;;;;;;13.35;2.00;;;;;;;;;;5011049;28;20136;-66
2022/02/04 13:32:53;;;;;;;13.25;2.30;;;;;;;;;;5022219;28;20124;-65
2022/02/04 13:35:40;;;;;;;18.17;2.13;;;;;;;;;;5021961;28;20125;-66
2022/02/04 13:38:28;;;;;;;18.38;2.13;;;;;;;;;;5024157;28;20083;-66
2022/02/04 13:41:05;;;;;;;27.00;4.18;;;;;;;;;;5022860;28;20077;-66
2022/02/04 13:46:36;;;;;;;16.40;2.58;;;;;;;;;;5025133;28;20582;-66
2022/02/04 13:49:25;;;;;;;11.02;2.30;;;;;;;;;;5022845;28;20476;-66
2022/02/04 13:52:03;;;;;;;16.52;2.65;;;;;;;;;;5021990;28;20129;-66
2022/02/04 13:54:53;;;;;;;11.10;2.22;;;;;;;;;;5021622;28;20057;-66
2022/02/04 14:00:30;;;;;;;10.48;1.80;;;;;;;;;;5017385;28;20718;-66
2022/02/04 14:03:11;;;;;;;22.65;3.05;;;;;;;;;;5018719;28;20057;-65
2022/02/04 14:05:52;;;;;;;13.70;2.22;;;;;;;;;;5017024;28;20136;-66
2022/02/04 14:08:27;;;;;;;18.10;2.20;;;;;;;;;;5009426;28;20468;-66
2022/02/04 14:11:07;;;;;;;10.73;2.08;;;;;;;;;;5024402;28;20052;-65
2022/02/04 14:13:54;;;;;;;17.33;1.92;;;;;;;;;;5019201;28;20416;-65
2022/02/04 14:16:22;;;;;;;13.98;1.70;;;;;;;;;;5021255;28;20085;-66
2022/02/04 14:18:48;;;;;;;15.55;1.83;;;;;;;;;;5019739;28;20137;-66
2022/02/04 14:21:16;;;;;;;13.73;1.75;;;;;;;;;;5021784;28;20088;-66
2022/02/04 14:23:53;;;;;;;9.82;1.65;;;;;;;;;;5018491;28;20081;-65
2022/02/04 14:26:27;;;;;;;12.65;1.63;;;;;;;;;;5020403;28;20096;-66
2022/02/04 14:31:37;;;;;;;13.63;1.63;;;;;;;;;;5022516;28;20085;-66
2022/02/04 14:50:47;;;;;;;10.48;2.50;;;;;;;;;;5020221;28;20565;-65
2022/02/04 15:01:25;;;;;;;14.10;2.25;;;;;;;;;;5015517;28;20085;-66
2022/02/04 15:04:04;;;;;;;9.60;1.88;;;;;;;;;;5021106;28;20485;-66
2022/02/04 15:06:36;;;;;;;13.18;1.83;;;;;;;;;;5020171;28;20137;-66
2022/02/04 15:09:05;;;;;;;19.63;1.88;;;;;;;;;;5018868;28;20050;-66
2022/02/04 15:11:34;;;;;;;20.98;3.28;;;;;;;;;;5022417;28;20057;-65
2022/02/04 15:14:02;;;;;;;40.28;16.33;;;;;;;;;;5024873;28;20601;-65
2022/02/04 15:16:29;;;;;;;18.48;5.28;;;;;;;;;;5021612;28;20050;-66
2022/02/04 15:18:58;;;;;;;19.23;2.42;;;;;;;;;;5022407;28;20045;-65
2022/02/04 15:21:25;;;;;;;16.90;2.10;;;;;;;;;;5019278;28;20053;-66
2022/02/04 15:23:53;;;;;;;11.45;4.05;;;;;;;;;;5024107;28;20120;-66
2022/02/04 15:26:20;;;;;;;15.45;3.60;;;;;;;;;;5021276;28;20088;-65
2022/02/04 15:33:54;;;;;;;17.48;2.40;;;;;;;;;;5027278;28;20162;-66
2022/02/04 15:36:27;;;;;;;13.00;2.20;;;;;;;;;;5022671;28;20088;-66
2022/02/04 15:38:54;;;;;;;13.27;2.63;;;;;;;;;;5026877;28;20576;-66
2022/02/04 15:41:22;;;;;;;8.93;1.33;;;;;;;;;;5024026;28;20556;-66
2022/02/04 15:43:53;;;;;;;12.63;1.92;;;;;;;;;;5022275;28;20132;-66
2022/02/04 15:57:00;;;;;;;10.65;3.55;;;;;;;;;;5020434;28;20421;-66
2022/02/04 16:04:59;;;;;;;14.50;2.60;;;;;;;;;;5023501;28;20080;-65
2022/02/04 16:07:26;;;;;;;15.15;1.83;;;;;;;;;;5018705;28;20077;-65
2022/02/04 16:10:18;;;;;;;13.20;1.73;;;;;;;;;;5021751;28;20478;-66
2022/02/04 16:16:18;;;;;;;9.82;1.92;;;;;;;;;;5020012;28;20508;-66
2022/02/04 16:18:16;;;;;;;15.18;2.10;;;;;;;;;;5014172;28;20077;-65
2022/02/04 16:23:28;;;;;;;18.55;2.70;;;;;;;;;;5017404;28;20132;-65
2022/02/04 16:28:41;;;;;;;19.35;2.00;;;;;;;;;;5018997;28;20141;-66
2022/02/04 16:31:11;;;;;;;25.45;2.83;;;;;;;;;;5017874;28;20045;-66
2022/02/04 16:33:42;;;;;;;17.75;2.72;;;;;;;;;;5021525;28;20144;-66
2022/02/04 16:36:15;;;;;;;16.70;3.72;;;;;;;;;;5020570;28;20052;-66
2022/02/04 16:38:44;;;;;;;14.27;2.45;;;;;;;;;;5024467;28;20065;-66
2022/02/04 16:41:14;;;;;;;16.80;2.40;;;;;;;;;;5019916;28;20064;-66
2022/02/04 16:43:40;;;;;;;12.75;2.40;;;;;;;;;;5023951;28;20158;-66
2022/02/04 16:46:07;;;;;;;10.27;1.80;;;;;;;;;;5018759;28;20086;-66
2022/02/04 16:48:36;;;;;;;15.35;2.58;;;;;;;;;;5022104;28;20137;-66
2022/02/04 16:51:04;;;;;;;19.58;2.50;;;;;;;;;;5020956;28;22313;-65
2022/02/04 16:53:32;;;;;;;21.65;2.22;;;;;;;;;;5022242;28;20136;-66
2022/02/04 16:55:59;;;;;;;19.73;2.50;;;;;;;;;;5033020;28;20140;-66
2022/02/04 16:58:25;;;;;;;16.30;2.17;;;;;;;;;;5043174;28;20095;-65
2022/02/04 17:00:52;;;;;;;15.43;1.90;;;;;;;;;;5038900;28;20053;-66
2022/02/04 17:03:20;;;;;;;20.27;2.35;;;;;;;;;;5043429;28;20048;-66
2022/02/04 17:08:21;;;;;;;14.27;2.75;;;;;;;;;;5040968;28;20156;-65
2022/02/04 17:10:57;;;;;;;44.05;15.98;;;;;;;;;;5040738;28;20123;-65
2022/02/04 17:13:23;;;;;;;40.53;11.88;;;;;;;;;;5038027;28;20089;-65
2022/02/04 17:15:50;;;;;;;24.30;3.40;;;;;;;;;;5041554;28;20081;-65
2022/02/04 17:18:17;;;;;;;25.35;5.93;;;;;;;;;;5044705;28;20198;-66
2022/02/04 17:20:45;;;;;;;24.70;4.03;;;;;;;;;;5039602;28;20132;-65
2022/02/04 17:23:13;;;;;;;18.33;2.60;;;;;;;;;;5039596;28;21012;-66
2022/02/04 17:25:39;;;;;;;9.32;2.55;;;;;;;;;;5042850;28;20120;-66
2022/02/04 17:28:06;;;;;;;32.30;3.10;;;;;;;;;;5040343;28;20603;-66
2022/02/04 17:30:32;;;;;;;18.10;3.05;;;;;;;;;;5038834;28;20839;-66
2022/02/04 17:33:00;;;;;;;27.00;2.75;;;;;;;;;;5040850;28;20139;-65
2022/02/04 17:35:27;;;;;;;26.52;3.40;;;;;;;;;;5041308;28;20057;-66
2022/02/04 17:37:56;;;;;;;22.47;3.90;;;;;;;;;;5039495;28;20056;-65
2022/02/04 17:40:26;;;;;;;27.75;4.18;;;;;;;;;;5041295;28;20144;-66
2022/02/04 17:42:54;;;;;;;26.77;4.13;;;;;;;;;;5029273;28;20057;-66
2022/02/04 17:45:22;;;;;;;30.60;4.13;;;;;;;;;;5043785;28;20126;-65
2022/02/04 17:48:04;;;;;;;29.52;4.40;;;;;;;;;;5041706;28;20477;-65
2022/02/04 17:50:37;;;;;;;33.92;4.30;;;;;;;;;;5038725;28;20049;-66
2022/02/04 17:53:13;;;;;;;26.80;3.78;;;;;;;;;;5042437;28;20619;-65
2022/02/04 17:55:46;;;;;;;27.85;4.55;;;;;;;;;;5041160;28;20099;-66
2022/02/04 17:58:25;;;;;;;25.95;3.50;;;;;;;;;;5040789;28;20053;-65
2022/02/04 18:01:17;;;;;;;26.25;3.70;;;;;;;;;;5037457;28;20132;-65
2022/02/04 18:08:57;;;;;;;29.23;3.92;;;;;;;;;;5043832;28;20072;-65
2022/02/04 18:11:26;;;;;;;34.53;5.32;;;;;;;;;;5044589;28;20139;-65
2022/02/04 18:13:53;;;;;;;27.05;4.80;;;;;;;;;;5037724;28;20049;-66
2022/02/04 18:16:19;;;;;;;26.10;4.30;;;;;;;;;;5043863;28;20081;-66
2022/02/04 18:18:46;;;;;;;36.88;5.22;;;;;;;;;;5041403;28;20084;-65
2022/02/04 18:21:12;;;;;;;27.52;4.20;;;;;;;;;;5040439;28;20634;-65
2022/02/04 18:23:40;;;;;;;29.45;5.28;;;;;;;;;;5040683;28;20052;-65
2022/02/04 18:26:08;;;;;;;38.47;4.40;;;;;;;;;;5034899;28;20128;-65
2022/02/04 18:28:35;;;;;;;30.67;4.45;;;;;;;;;;5041730;28;20140;-65
2022/02/04 18:31:08;;;;;;;28.10;4.35;;;;;;;;;;5037023;28;20080;-65
2022/02/04 18:33:35;;;;;;;28.35;4.45;;;;;;;;;;5040285;28;20072;-65
2022/02/04 18:36:02;;;;;;;45.22;5.38;;;;;;;;;;5040588;28;20606;-65
2022/02/04 18:41:23;;;;;;;38.88;5.72;;;;;;;;;;5035931;28;20049;-65
2022/02/04 18:43:57;;;;;;;35.95;5.20;;;;;;;;;;5044129;28;20072;-65
2022/02/04 18:49:02;;;;;;;33.40;6.40;;;;;;;;;;5042328;28;20117;-65
2022/02/04 18:54:53;;;;;;;29.60;4.18;;;;;;;;;;4949264;28;20138;-65
2022/02/04 18:57:22;;;;;;;28.83;5.50;;;;;;;;;;4947436;28;20186;-65
2022/02/04 18:59:56;;;;;;;51.22;5.32;;;;;;;;;;5007302;28;20560;-65
2022/02/04 19:02:24;;;;;;;47.60;5.45;;;;;;;;;;5040625;28;20171;-65
2022/02/04 19:05:02;;;;;;;50.15;7.22;;;;;;;;;;5041213;28;20126;-65
2022/02/04 19:07:46;;;;;;;43.03;8.38;;;;;;;;;;5046948;28;20049;-65
2022/02/04 19:10:19;;;;;;;39.30;4.95;;;;;;;;;;5039033;28;20041;-65
2022/02/04 19:12:50;;;;;;;43.00;5.78;;;;;;;;;;5044329;28;20603;-65
2022/02/04 19:18:07;;;;;;;49.28;5.28;;;;;;;;;;5043815;28;20045;-65
2022/02/04 19:23:04;;;;;;;44.13;5.30;;;;;;;;;;5047297;28;20164;-65
2022/02/04 19:25:35;;;;;;;42.97;4.88;;;;;;;;;;5042023;28;20053;-65
2022/02/04 19:28:02;;;;;;;53.20;4.90;;;;;;;;;;5027548;28;20223;-65
2022/02/04 19:30:30;;;;;;;42.55;4.50;;;;;;;;;;5040718;28;20132;-65
2022/02/04 19:32:56;;;;;;;38.63;6.10;;;;;;;;;;5042572;28;20523;-65
2022/02/04 19:35:23;;;;;;;39.77;8.10;;;;;;;;;;5046980;28;20055;-65
2022/02/04 19:37:52;;;;;;;54.03;5.57;;;;;;;;;;5042277;28;20643;-65
2022/02/04 19:40:19;;;;;;;41.63;4.70;;;;;;;;;;5042146;28;20171;-65
2022/02/04 19:42:48;;;;;;;43.03;3.90;;;;;;;;;;5043582;28;20219;-65
2022/02/04 19:45:20;;;;;;;49.03;5.57;;;;;;;;;;5041713;28;20137;-64
2022/02/04 19:48:07;;;;;;;44.55;6.70;;;;;;;;;;5044460;28;20141;-65
2022/02/04 20:25:59;;;;;;;54.10;4.22;;;;;;;;;;5042207;28;20080;-63
2022/02/04 20:28:26;;;;;;;40.87;4.93;;;;;;;;;;5043749;28;20465;-63
2022/02/04 20:30:52;;;;;;;58.33;5.30;;;;;;;;;;5044706;28;20297;-63
2022/02/04 20:33:19;;;;;;;47.10;4.43;;;;;;;;;;5042468;28;20077;-63
2022/02/04 20:35:46;;;;;;;36.13;5.18;;;;;;;;;;5025605;28;20319;-63
2022/02/04 20:38:17;;;;;;;58.40;4.88;;;;;;;;;;5045512;28;20548;-63
2022/02/04 20:40:55;;;;;;;;;;;;;;;;;;5043474;28;20148;-63
2022/02/04 20:43:22;;;;;;;37.20;3.92;;;;;;;;;;5040923;28;20015;-63
2022/02/04 20:45:49;;;;;;;;;;;;;;;;;;5043694;28;20156;-63
2022/02/04 20:48:17;;;;;;;31.97;4.37;;;;;;;;;;5039485;28;19975;-63
2022/02/04 20:50:43;;;;;;;46.55;4.18;;;;;;;;;;5043674;28;20127;-63
2022/02/04 20:53:10;;;;;;;49.00;4.63;;;;;;;;;;5040704;28;20080;-63
2022/02/04 20:55:38;;;;;;;38.13;3.42;;;;;;;;;;5039164;28;20611;-63
2022/02/04 20:58:08;;;;;;;37.35;4.03;;;;;;;;;;5024746;28;20053;-63
2022/02/04 21:00:35;;;;;;;43.05;3.90;;;;;;;;;;5021303;28;20116;-63
2022/02/04 21:03:04;;;;;;;41.10;4.30;;;;;;;;;;5023209;28;20057;-63
2022/02/04 21:05:40;;;;;;;40.17;4.85;;;;;;;;;;5020693;28;20084;-63
2022/02/04 21:13:48;;;;;;;40.45;4.68;;;;;;;;;;5023154;28;20129;-63
2022/02/04 21:16:21;;;;;;;38.40;3.72;;;;;;;;;;5018315;28;20093;-63
2022/02/04 21:18:50;;;;;;;39.42;4.40;;;;;;;;;;5023171;28;20243;-63
2022/02/04 21:21:16;;;;;;;43.53;4.75;;;;;;;;;;5023899;28;20568;-63
2022/02/04 21:23:43;;;;;;;48.72;4.80;;;;;;;;;;5023611;28;20402;-63
2022/02/04 21:26:16;;;;;;;37.47;4.80;;;;;;;;;;5020859;28;20124;-63
2022/02/04 21:28:45;;;;;;;38.95;4.38;;;;;;;;;;5022968;28;20107;-63
2022/02/04 21:31:13;;;;;;;58.05;5.25;;;;;;;;;;5019674;28;20089;-63
2022/02/04 21:39:07;;;;;;;39.35;3.75;;;;;;;;;;5023856;28;20129;-63
2022/02/04 21:41:33;;;;;;;41.10;5.18;;;;;;;;;;5020954;28;20128;-63
2022/02/04 21:44:00;;;;;;;46.05;3.63;;;;;;;;;;5021492;28;20140;-63
2022/02/04 21:46:29;;;;;;;44.35;3.80;;;;;;;;;;5024514;28;20519;-63
2022/02/04 21:48:59;;;;;;;36.20;3.65;;;;;;;;;;5023894;28;20053;-63
2022/02/04 21:51:25;;;;;;;43.53;4.50;;;;;;;;;;5024774;28;20162;-63
2022/02/04 21:53:53;;;;;;;37.78;4.10;;;;;;;;;;5025998;28;20128;-63
2022/02/04 21:56:20;;;;;;;40.42;3.80;;;;;;;;;;5024323;28;20176;-64
2022/02/04 21:58:47;;;;;;;36.20;3.30;;;;;;;;;;5023436;28;20161;-63
2022/02/04 22:01:14;;;;;;;55.10;3.90;;;;;;;;;;5022539;28;20084;-63